Aérodrome :
LOGIN :

S'inscrire | Disclaimer

   EN    FR    IT 

 










Légende :    VFR   VFR Marginal   IFR   IFR Intensif   IFR Très Intensif
Visi : 
Plafond : 
>= 8 km
>= 3000ft
5 à 8 km
1000 à 3000 ft
1500m à 5 km
500 à 1000 ft
800 à 1500m
200 à 500 ft
< 800m
< 200 ft
Symboles :   Orages  Brouillard  Fortes neiges  Fortes précipitations  Vent > 20 kt
SIGMETs :   Divers  Orages  Givrage  Turbulence  Onde Orograph.  Cendres Volcan.







- Altitude de l'aérodrome : 14 ft
- Code IATA : BRE


EDDW - Bremen Neuenland

DERNIER METAR :
  • 240420Z VRB01KT 6000 NSC 02/02 Q1029 TEMPO 4000 BR

METARs EXPIRÉS :
  • 240350Z 25002KT 6000 NSC 02/02 Q1029 TEMPO 4000 BR
  • 240320Z VRB01KT 9000 NSC 02/02 Q1030
  • 240250Z 30004KT CAVOK 02/02 Q1030
  • 240220Z 33003KT CAVOK 04/03 Q1030
  • 240150Z 34005KT CAVOK 04/03 Q1030

TAF TAF EDDW
Valide du 24 à 00h jusqu'au 25 à 00h UTC


232300Z 2400/2424 VRB02KT 9999 FEW045
BECMG 2400/2403 4000 BR
TEMPO 2400/2408 1200 BCFG
PROB30
TEMPO 2403/2408 0400 FG BKN001
BECMG 2408/2410 9999
BECMG 2410/2412 28009KT
Pas de NOTAMs connus pour ce terrain.



MET'MAP, la Météo Aéronautique d'un coup d'oeil ! - Copyright ORBIFLY Décembre 2007 - Disclaimer

ORBIFLY MET'MAP TEAM :

Programmation & Développement : Alexandra Zaïnal
Conception & Développement : Baudouin d'Aumeries
Co-Programmation & Développement : Marc-Olivier Méhu
Soutien technique & logistique : Manuel Goepfert

Contact : metmap@orbifly.com




SOURCES & CREDITS :

   NOAA